Time;durP1;ratioP1;P1;durP2;ratioP2;P2;SDS_P1;SDS_P2;PMS_P1;PMS_P2;Temp;Humidity;BMP_temperature;BMP_pressure;BME280_temperature;BME280_humidity;BME280_pressure;Samples;Min_cycle;Max_cycle;Signal;HPM_P1;HPM_P2
2023/10/01 00:00:12;;;;;;;17.77;12.02;;;17.20;78.50;;;;;;5032510;28;20339;-85
2023/10/01 00:02:40;;;;;;;16.88;11.85;;;17.10;78.70;;;;;;5047641;28;20028;-85
2023/10/01 00:05:06;;;;;;;20.77;12.60;;;17.10;78.60;;;;;;5037635;28;20048;-84
2023/10/01 00:07:39;;;;;;;16.58;12.77;;;17.20;78.60;;;;;;5053645;28;20115;-85
2023/10/01 00:10:12;;;;;;;21.80;11.68;;;17.20;78.60;;;;;;5035979;28;20102;-85
2023/10/01 00:12:39;;;;;;;19.52;13.73;;;17.20;78.60;;;;;;5037545;28;20053;-85
2023/10/01 00:15:10;;;;;;;15.35;11.95;;;17.20;78.70;;;;;;5040594;28;20543;-83
2023/10/01 00:17:37;;;;;;;17.52;11.55;;;17.10;78.60;;;;;;5038847;28;20033;-84
2023/10/01 00:20:18;;;;;;;19.00;13.00;;;17.10;78.70;;;;;;5035017;28;20025;-84
2023/10/01 00:22:45;;;;;;;18.38;12.85;;;17.10;78.90;;;;;;5072880;28;20060;-85
2023/10/01 00:25:15;;;;;;;;;;;17.10;79.00;;;;;;5035563;28;20489;-85
2023/10/01 00:27:41;;;;;;;16.90;11.48;;;17.00;78.70;;;;;;5051773;28;19909;-84
2023/10/01 00:30:09;;;;;;;17.27;12.65;;;16.90;79.10;;;;;;5035483;28;20112;-86
2023/10/01 00:32:39;;;;;;;21.05;12.30;;;16.90;79.40;;;;;;5054398;28;20024;-85
2023/10/01 00:35:07;;;;;;;14.23;12.63;;;16.90;79.40;;;;;;5057207;28;20049;-84
2023/10/01 00:37:33;;;;;;;16.15;13.00;;;16.80;79.60;;;;;;5041895;28;20032;-83
2023/10/01 00:40:00;;;;;;;17.50;13.30;;;16.80;79.60;;;;;;5034632;28;20033;-84
2023/10/01 00:42:28;;;;;;;14.80;10.95;;;16.80;79.70;;;;;;5051984;28;20374;-85
2023/10/01 00:44:56;;;;;;;15.43;12.40;;;16.80;79.80;;;;;;5034906;28;20064;-84
2023/10/01 00:47:22;;;;;;;17.50;11.73;;;16.70;79.90;;;;;;5034669;28;20021;-84
2023/10/01 00:49:49;;;;;;;21.00;13.48;;;16.70;80.00;;;;;;5052669;28;20029;-84
2023/10/01 00:52:19;;;;;;;17.10;13.07;;;16.60;80.30;;;;;;5052646;28;20031;-83
2023/10/01 00:54:46;;;;;;;13.35;11.10;;;16.60;80.30;;;;;;5034635;28;20029;-85
2023/10/01 00:57:12;;;;;;;22.30;14.60;;;16.60;80.40;;;;;;5052102;28;20071;-83
2023/10/01 00:59:38;;;;;;;18.20;12.90;;;16.60;80.50;;;;;;5052112;28;20033;-83
2023/10/01 01:02:07;;;;;;;20.55;13.07;;;16.50;80.70;;;;;;5052509;28;20025;-86
2023/10/01 01:04:42;;;;;;;17.52;11.77;;;16.50;80.70;;;;;;5038517;28;20402;-85
2023/10/01 01:07:19;;;;;;;15.80;11.90;;;16.50;80.70;;;;;;5052686;28;20009;-85
2023/10/01 01:09:46;;;;;;;16.58;13.73;;;16.50;80.80;;;;;;5052872;28;20493;-84
2023/10/01 01:12:13;;;;;;;17.42;13.07;;;16.50;80.90;;;;;;5035785;28;20028;-83
2023/10/01 01:14:44;;;;;;;16.67;13.13;;;16.40;80.90;;;;;;5035669;28;20040;-83
2023/10/01 01:17:13;;;;;;;15.98;12.05;;;16.40;81.10;;;;;;5039331;28;20024;-84
2023/10/01 01:19:42;;;;;;;15.82;11.88;;;16.40;81.20;;;;;;5053694;28;20037;-85
2023/10/01 01:22:15;;;;;;;15.38;11.95;;;16.40;81.10;;;;;;5023711;28;20396;-84
2023/10/01 01:24:41;;;;;;;16.70;12.85;;;16.40;81.10;;;;;;5043191;28;20021;-85
2023/10/01 01:27:06;;;;;;;14.90;12.90;;;16.30;81.30;;;;;;5039075;28;20029;-84
2023/10/01 01:29:40;;;;;;;13.93;11.52;;;16.30;81.50;;;;;;5052298;28;20033;-82
2023/10/01 01:32:15;;;;;;;19.95;12.07;;;16.30;81.60;;;;;;5042416;28;20052;-85
2023/10/01 01:34:42;;;;;;;17.50;11.88;;;16.20;81.80;;;;;;5053663;28;20045;-85
2023/10/01 01:37:08;;;;;;;18.83;12.82;;;16.20;81.90;;;;;;5034587;28;20394;-84
2023/10/01 01:40:09;;;;;;;15.68;12.10;;;16.20;82.10;;;;;;5052290;28;20119;-84
2023/10/01 01:42:35;;;;;;;26.20;12.30;;;16.20;82.00;;;;;;5055915;28;20021;-86
2023/10/01 01:45:18;;;;;;;15.30;12.40;;;16.10;82.20;;;;;;5055842;28;20058;-86
2023/10/01 01:47:44;;;;;;;17.05;12.27;;;16.10;82.20;;;;;;5068709;28;20017;-85
2023/10/01 01:50:21;;;;;;;16.83;12.20;;;16.10;82.50;;;;;;5071892;28;20048;-85
2023/10/01 01:52:49;;;;;;;19.08;12.35;;;16.00;82.70;;;;;;5036928;28;20382;-85
2023/10/01 01:55:29;;;;;;;19.67;12.82;;;16.00;82.90;;;;;;5073670;28;20025;-86
2023/10/01 01:58:15;;;;;;;21.10;12.85;;;15.90;83.00;;;;;;5035419;28;20056;-86
2023/10/01 02:03:27;;;;;;;14.40;11.85;;;15.90;83.30;;;;;;5052919;28;20036;-84
2023/10/01 02:05:53;;;;;;;17.80;12.80;;;15.80;83.40;;;;;;5053177;28;20021;-86
2023/10/01 02:08:34;;;;;;;21.20;12.93;;;15.80;83.70;;;;;;5055346;28;20037;-85
2023/10/01 02:11:04;;;;;;;17.90;12.07;;;15.80;84.00;;;;;;5069222;28;20019;-85
2023/10/01 02:13:32;;;;;;;14.45;12.20;;;15.70;83.90;;;;;;5039253;28;20470;-86
2023/10/01 02:16:18;;;;;;;18.05;13.35;;;15.70;83.80;;;;;;5057063;28;20080;-86
2023/10/01 02:18:58;;;;;;;18.27;12.73;;;15.70;84.50;;;;;;5065273;28;20037;-85
2023/10/01 02:24:54;;;;;;;20.02;12.35;;;15.70;84.10;;;;;;4971706;28;20042;-86
2023/10/01 02:27:24;;;;;;;19.38;12.40;;;15.60;84.00;;;;;;4972092;28;20412;-85
2023/10/01 02:32:35;;;;;;;15.52;12.35;;;15.60;84.20;;;;;;4974431;28;20046;-86
2023/10/01 02:35:33;;;;;;;20.05;12.20;;;15.50;84.10;;;;;;4973872;28;20054;-86
2023/10/01 02:37:47;;;;;;;16.58;12.02;;;15.60;84.30;;;;;;4973945;28;20098;-86
2023/10/01 02:40:17;;;;;;;15.15;11.55;;;15.60;84.40;;;;;;4968933;28;20103;-87
2023/10/01 02:42:45;;;;;;;15.48;12.30;;;15.50;84.40;;;;;;4965489;28;20488;-86
2023/10/01 02:45:32;;;;;;;15.30;12.45;;;15.60;84.30;;;;;;4974306;28;20119;-86
2023/10/01 02:48:13;;;;;;;18.98;12.88;;;15.50;84.60;;;;;;4974052;28;20066;-85
2023/10/01 02:50:51;;;;;;;15.77;12.60;;;15.50;84.50;;;;;;4977671;28;20039;-86
2023/10/01 02:53:20;;;;;;;17.52;13.48;;;15.60;84.50;;;;;;4994303;28;20010;-85
2023/10/01 02:55:47;;;;;;;17.63;13.77;;;15.60;84.30;;;;;;4972429;28;20393;-86
2023/10/01 02:58:28;;;;;;;14.90;11.98;;;15.60;84.30;;;;;;5004897;28;20407;-86
2023/10/01 03:00:54;;;;;;;19.48;11.27;;;15.60;84.10;;;;;;5024847;28;20443;-85
2023/10/01 03:03:32;;;;;;;17.27;12.77;;;15.60;84.00;;;;;;5049020;28;20060;-84
2023/10/01 03:06:08;;;;;;;;;;;15.70;83.90;;;;;;5038830;28;20025;-85
2023/10/01 03:08:41;;;;;;;18.10;12.40;;;15.70;83.50;;;;;;5054438;28;20320;-85
2023/10/01 03:11:11;;;;;;;15.68;11.93;;;15.70;83.60;;;;;;5037090;28;20458;-86
2023/10/01 03:13:38;;;;;;;21.65;12.77;;;15.70;83.70;;;;;;5054549;28;20021;-85
2023/10/01 03:18:54;;;;;;;17.55;13.10;;;15.70;84.50;;;;;;5047190;28;20131;-86
2023/10/01 03:22:13;;;;;;;17.83;12.13;;;15.70;83.80;;;;;;5036611;28;20037;-86
2023/10/01 03:24:10;;;;;;;20.05;12.82;;;15.70;83.90;;;;;;5054879;28;20079;-86
2023/10/01 03:26:43;;;;;;;16.17;12.50;;;15.60;84.00;;;;;;5055718;28;20109;-85
2023/10/01 03:29:21;;;;;;;15.55;12.65;;;15.60;84.10;;;;;;5062932;28;20036;-85
2023/10/01 03:31:53;;;;;;;16.23;12.65;;;15.60;84.20;;;;;;5053042;28;20009;-85
2023/10/01 03:34:28;;;;;;;17.85;12.23;;;15.60;84.10;;;;;;5036403;28;20057;-84
2023/10/01 03:36:58;;;;;;;16.08;12.18;;;15.60;84.10;;;;;;5041447;28;20025;-84
2023/10/01 03:39:25;;;;;;;18.65;13.07;;;15.70;84.30;;;;;;5038835;28;20387;-86
2023/10/01 03:42:10;;;;;;;18.60;13.38;;;15.60;84.00;;;;;;5053739;28;20016;-86
2023/10/01 03:47:23;;;;;;;15.05;12.10;;;15.70;83.90;;;;;;5041468;28;20028;-85
2023/10/01 03:49:54;;;;;;;17.97;12.00;;;15.70;83.80;;;;;;5054138;28;20070;-84
2023/10/01 03:52:28;;;;;;;13.70;12.13;;;15.70;83.80;;;;;;5054158;28;20366;-85
2023/10/01 03:55:15;;;;;;;17.55;12.82;;;15.80;83.80;;;;;;5054749;28;20106;-85
2023/10/01 03:57:54;;;;;;;19.75;13.15;;;15.90;83.60;;;;;;5056566;28;20033;-86
2023/10/01 04:00:32;;;;;;;15.43;12.98;;;15.90;83.40;;;;;;5042541;28;20029;-85
2023/10/01 04:02:58;;;;;;;19.15;11.82;;;16.00;83.20;;;;;;5050585;28;20013;-85
2023/10/01 04:05:34;;;;;;;17.20;12.65;;;16.10;83.10;;;;;;5036277;28;20025;-85
2023/10/01 04:08:11;;;;;;;17.38;12.88;;;16.10;82.70;;;;;;5053885;28;20017;-85
2023/10/01 04:10:38;;;;;;;18.00;12.70;;;16.10;82.80;;;;;;5053345;28;20493;-84
2023/10/01 04:13:20;;;;;;;22.15;13.48;;;16.20;82.70;;;;;;5035593;28;20021;-84
2023/10/01 04:16:07;;;;;;;22.52;12.05;;;16.20;82.50;;;;;;5051783;28;20037;-84
2023/10/01 04:18:34;;;;;;;;;;;16.20;82.20;;;;;;5050707;28;20047;-83
2023/10/01 04:23:31;;;;;;;17.10;12.50;;;16.10;82.40;;;;;;5053120;28;20021;-83
2023/10/01 04:26:06;;;;;;;17.23;12.25;;;16.10;82.50;;;;;;5035922;28;20025;-83
2023/10/01 04:28:44;;;;;;;16.50;13.35;;;16.10;82.50;;;;;;5053526;28;20017;-84
2023/10/01 04:31:14;;;;;;;17.63;12.75;;;16.20;82.90;;;;;;5040312;28;20025;-83
2023/10/01 04:33:47;;;;;;;15.40;13.63;;;16.30;82.50;;;;;;5037881;28;20116;-83
2023/10/01 04:36:16;;;;;;;20.63;12.88;;;16.30;82.20;;;;;;5054176;28;20093;-84
2023/10/01 04:38:43;;;;;;;19.60;12.45;;;16.40;82.10;;;;;;5037337;28;20445;-83
2023/10/01 04:41:25;;;;;;;;;;;16.50;81.80;;;;;;5054975;28;20028;-84
2023/10/01 04:43:59;;;;;;;22.77;13.18;;;16.50;81.50;;;;;;5039061;28;19904;-82
2023/10/01 04:46:25;;;;;;;22.42;13.15;;;16.60;81.40;;;;;;5035387;28;20035;-85
2023/10/01 04:48:52;;;;;;;19.67;12.98;;;16.80;81.20;;;;;;5047114;28;20022;-84
2023/10/01 04:51:21;;;;;;;16.42;12.73;;;17.10;80.80;;;;;;5043437;28;20098;-85
2023/10/01 04:53:48;;;;;;;16.20;12.43;;;17.20;79.80;;;;;;5034805;28;20021;-84
2023/10/01 04:56:25;;;;;;;14.13;12.47;;;17.40;79.30;;;;;;5052747;28;20059;-85
2023/10/01 04:58:54;;;;;;;14.93;12.38;;;17.30;78.70;;;;;;5052530;28;20033;-85
2023/10/01 05:01:28;;;;;;;20.52;13.70;;;17.30;78.80;;;;;;5036197;28;20031;-83
2023/10/01 05:03:56;;;;;;;17.85;12.57;;;17.20;79.10;;;;;;5044385;28;20017;-85
2023/10/01 05:06:22;;;;;;;18.77;13.10;;;17.20;79.20;;;;;;5049987;28;20028;-85
2023/10/01 05:08:52;;;;;;;20.85;14.07;;;17.10;79.10;;;;;;5062355;28;20604;-84
2023/10/01 05:11:21;;;;;;;18.13;13.20;;;17.00;79.40;;;;;;5035096;28;20022;-85
2023/10/01 05:13:53;;;;;;;23.80;14.45;;;17.00;79.70;;;;;;5052600;28;20390;-86
2023/10/01 05:16:26;;;;;;;18.95;13.30;;;17.00;80.00;;;;;;5034416;28;20429;-86
2023/10/01 05:19:09;;;;;;;14.25;12.75;;;16.90;79.90;;;;;;5053177;28;20037;-85
2023/10/01 05:21:46;;;;;;;21.48;14.25;;;16.90;80.60;;;;;;5034762;28;20553;-85
2023/10/01 05:24:16;;;;;;;15.80;13.40;;;16.70;81.30;;;;;;5049941;28;20052;-86
2023/10/01 05:26:44;;;;;;;16.83;13.27;;;16.70;81.80;;;;;;5034743;28;20035;-84
2023/10/01 05:29:13;;;;;;;20.13;13.65;;;16.60;82.80;;;;;;5051954;28;20025;-84
2023/10/01 05:31:41;;;;;;;19.42;14.15;;;16.40;83.30;;;;;;5036892;28;20029;-84
2023/10/01 05:34:06;;;;;;;24.05;14.55;;;16.30;84.20;;;;;;5040835;28;20493;-82
2023/10/01 05:36:35;;;;;;;19.42;14.30;;;16.30;84.70;;;;;;5050934;28;20036;-85
2023/10/01 05:39:01;;;;;;;16.73;14.38;;;16.20;85.30;;;;;;5052402;28;20021;-85
2023/10/01 05:41:32;;;;;;;18.10;14.45;;;16.10;85.90;;;;;;5053497;28;20025;-85
2023/10/01 05:44:01;;;;;;;20.55;16.25;;;16.00;86.80;;;;;;5038844;28;20021;-83
2023/10/01 05:46:28;;;;;;;23.35;14.85;;;15.80;87.70;;;;;;5031069;28;20108;-83
2023/10/01 05:49:00;;;;;;;22.63;14.57;;;15.70;89.00;;;;;;5052889;28;20032;-84
2023/10/01 05:51:45;;;;;;;20.65;14.48;;;15.60;89.30;;;;;;5034929;28;20032;-83
2023/10/01 05:54:18;;;;;;;20.38;15.30;;;15.60;90.10;;;;;;5021719;28;20160;-84
2023/10/01 05:56:47;;;;;;;21.95;14.75;;;15.50;90.50;;;;;;5052391;28;20112;-86
2023/10/01 05:59:14;;;;;;;19.73;15.88;;;15.40;90.80;;;;;;5022144;28;20410;-84
2023/10/01 06:01:41;;;;;;;20.83;15.52;;;15.40;90.90;;;;;;5035493;28;20470;-84
2023/10/01 06:04:12;;;;;;;24.10;14.95;;;15.30;91.10;;;;;;5043653;28;20029;-85
2023/10/01 06:06:42;;;;;;;21.63;16.38;;;15.20;91.40;;;;;;5056651;28;20119;-83
2023/10/01 06:09:14;;;;;;;22.52;15.52;;;15.20;91.90;;;;;;5038178;28;20048;-84
2023/10/01 06:12:03;;;;;;;22.38;15.60;;;15.10;92.30;;;;;;5058418;28;20108;-86
2023/10/01 06:14:41;;;;;;;21.88;16.77;;;15.10;92.60;;;;;;5054482;28;20029;-85
2023/10/01 06:17:10;;;;;;;24.13;16.58;;;15.00;92.80;;;;;;5057609;28;20119;-87
2023/10/01 06:19:41;;;;;;;25.00;19.15;;;14.90;93.10;;;;;;5057176;28;20025;-85
2023/10/01 06:22:13;;;;;;;22.50;18.25;;;15.00;93.40;;;;;;5039054;28;20044;-86
2023/10/01 06:24:46;;;;;;;20.67;17.10;;;15.00;93.70;;;;;;5043889;28;20025;-87
2023/10/01 06:27:13;;;;;;;19.25;15.73;;;14.90;94.10;;;;;;5054851;28;20049;-87
2023/10/01 06:29:49;;;;;;;22.23;15.40;;;14.90;94.10;;;;;;5041846;28;20028;-85
2023/10/01 06:32:23;;;;;;;20.48;16.40;;;14.80;94.10;;;;;;5071713;28;20043;-88
2023/10/01 06:34:51;;;;;;;20.17;16.08;;;14.60;94.50;;;;;;5038372;28;20503;-86
2023/10/01 06:37:19;;;;;;;23.05;17.52;;;14.60;94.70;;;;;;5042537;28;20132;-87
2023/10/01 06:39:46;;;;;;;20.40;16.92;;;14.70;94.90;;;;;;5029767;28;20041;-86
2023/10/01 06:42:18;;;;;;;25.10;16.48;;;14.70;94.90;;;;;;5039946;28;20032;-88
2023/10/01 06:44:48;;;;;;;17.05;14.70;;;14.70;95.00;;;;;;5038190;28;20033;-85
2023/10/01 06:47:15;;;;;;;23.27;15.55;;;14.60;95.20;;;;;;5034410;28;20021;-86
2023/10/01 06:49:57;;;;;;;24.47;16.50;;;14.30;95.70;;;;;;5018564;28;20021;-85
2023/10/01 06:52:27;;;;;;;20.02;15.95;;;14.30;96.40;;;;;;5042438;28;20258;-86
2023/10/01 06:54:57;;;;;;;15.90;14.20;;;14.40;96.70;;;;;;5037598;28;20059;-87
2023/10/01 06:57:33;;;;;;;17.05;14.63;;;14.30;96.80;;;;;;5037006;28;20486;-85
2023/10/01 07:00:21;;;;;;;18.00;15.10;;;14.40;96.90;;;;;;5057643;28;20383;-85
2023/10/01 07:02:50;;;;;;;21.92;14.77;;;14.30;97.00;;;;;;5037349;28;20021;-84
2023/10/01 07:05:20;;;;;;;19.05;13.88;;;14.20;97.50;;;;;;5036045;28;20465;-86
2023/10/01 07:07:48;;;;;;;16.98;13.75;;;14.20;97.80;;;;;;5053867;28;20043;-86
2023/10/01 07:10:15;;;;;;;17.02;13.45;;;14.30;97.80;;;;;;5048212;28;20029;-85
2023/10/01 07:12:53;;;;;;;18.38;14.45;;;14.30;97.70;;;;;;5054896;28;20027;-84
2023/10/01 07:15:20;;;;;;;18.48;14.50;;;14.30;97.90;;;;;;5054514;28;20064;-84
2023/10/01 07:17:47;;;;;;;15.73;14.07;;;14.20;98.10;;;;;;5036193;28;20037;-84
2023/10/01 07:20:19;;;;;;;16.85;12.82;;;14.20;98.40;;;;;;5044214;28;20549;-83
2023/10/01 07:22:45;;;;;;;17.90;13.93;;;14.30;98.40;;;;;;5053250;28;20036;-87
2023/10/01 07:25:37;;;;;;;17.17;12.73;;;14.20;98.50;;;;;;5054635;28;20036;-86
2023/10/01 07:28:07;;;;;;;19.30;13.73;;;14.10;98.70;;;;;;5034390;28;20083;-86
2023/10/01 07:30:45;;;;;;;15.07;12.50;;;14.10;99.10;;;;;;5026748;28;20060;-84
2023/10/01 07:33:14;;;;;;;18.38;13.15;;;14.10;99.30;;;;;;5035051;28;20021;-86
2023/10/01 07:35:45;;;;;;;18.50;13.98;;;14.10;99.50;;;;;;5047742;28;20032;-85
2023/10/01 07:38:13;;;;;;;15.20;11.30;;;14.10;99.90;;;;;;5069340;28;20076;-87
2023/10/01 07:43:37;;;;;;;14.73;11.38;;;14.20;99.80;;;;;;5008002;28;20493;-85
2023/10/01 07:46:07;;;;;;;13.43;11.95;;;14.10;99.90;;;;;;5054718;28;20025;-85
2023/10/01 07:48:33;;;;;;;14.93;10.23;;;14.20;99.90;;;;;;5037487;28;20049;-87
2023/10/01 07:51:02;;;;;;;18.95;12.15;;;14.10;99.90;;;;;;5054658;28;20029;-86
2023/10/01 07:53:34;;;;;;;22.52;11.52;;;14.10;99.90;;;;;;5053596;28;20035;-85
2023/10/01 07:56:07;;;;;;;13.82;11.73;;;14.20;99.90;;;;;;5059134;28;20017;-84
2023/10/01 07:58:47;;;;;;;15.25;10.32;;;14.20;99.90;;;;;;5030927;28;20478;-88
2023/10/01 08:04:06;;;;;;;12.77;10.02;;;14.10;99.90;;;;;;5049588;28;20075;-86
2023/10/01 08:06:41;;;;;;;14.85;11.43;;;14.10;99.90;;;;;;5052567;28;20473;-86
2023/10/01 08:09:11;;;;;;;15.23;11.23;;;14.00;99.90;;;;;;5036811;28;20106;-86
2023/10/01 08:11:58;;;;;;;14.48;11.45;;;14.00;99.90;;;;;;5054567;28;20044;-83
2023/10/01 08:14:27;;;;;;;17.83;11.63;;;14.00;99.90;;;;;;5065727;28;20402;-88
2023/10/01 08:17:00;;;;;;;14.73;9.70;;;14.20;99.90;;;;;;5046735;28;20018;-91
2023/10/01 08:19:44;;;;;;;11.65;10.27;;;14.40;99.90;;;;;;5036577;28;20025;-85
2023/10/01 08:22:14;;;;;;;13.88;10.07;;;14.50;99.90;;;;;;5036077;28;20112;-88
2023/10/01 08:24:49;;;;;;;11.32;9.90;;;14.80;99.90;;;;;;5050050;28;20477;-86
2023/10/01 08:27:31;;;;;;;12.32;9.70;;;15.00;99.90;;;;;;5054292;28;20013;-88
2023/10/01 08:30:18;;;;;;;15.60;10.63;;;15.10;99.60;;;;;;5038105;28;20060;-85
2023/10/01 08:32:53;;;;;;;15.00;9.63;;;15.20;99.10;;;;;;5044476;28;20021;-87
2023/10/01 08:35:34;;;;;;;11.73;9.35;;;15.20;98.50;;;;;;5051177;28;20056;-87
2023/10/01 08:38:00;;;;;;;14.35;9.82;;;15.20;98.30;;;;;;5060771;28;20044;-87
2023/10/01 08:40:29;;;;;;;14.52;11.32;;;15.30;98.20;;;;;;5047802;28;20040;-87
2023/10/01 08:42:58;;;;;;;17.65;9.15;;;15.40;97.80;;;;;;5037070;28;20020;-88
2023/10/01 08:45:37;;;;;;;13.18;8.48;;;15.50;97.30;;;;;;5055164;28;20021;-89
2023/10/01 08:48:07;;;;;;;13.43;8.90;;;15.60;96.90;;;;;;5039768;28;20021;-88
2023/10/01 08:50:39;;;;;;;10.23;6.90;;;15.70;96.40;;;;;;5033150;28;20052;-85
2023/10/01 08:53:10;;;;;;;10.80;6.97;;;15.80;95.80;;;;;;5042208;28;20541;-88
2023/10/01 08:58:15;;;;;;;12.18;8.20;;;15.70;95.10;;;;;;5048534;28;20028;-87
2023/10/01 09:01:10;;;;;;;13.63;7.30;;;15.80;95.10;;;;;;5051383;28;20049;-84
2023/10/01 09:03:38;;;;;;;12.27;7.68;;;15.80;94.80;;;;;;5033402;28;20020;-90
2023/10/01 09:06:06;;;;;;;16.15;7.03;;;15.80;94.60;;;;;;5026510;28;20127;-91
2023/10/01 09:08:42;;;;;;;10.60;7.05;;;15.80;94.80;;;;;;5055966;28;20490;-84
2023/10/01 09:11:15;;;;;;;8.85;7.07;;;16.00;94.60;;;;;;5054522;28;20103;-90
2023/10/01 09:16:42;;;;;;;11.48;6.63;;;16.10;94.10;;;;;;5052024;28;20027;-85
2023/10/01 09:19:31;;;;;;;13.05;7.00;;;16.20;94.00;;;;;;5044387;28;20036;-84
2023/10/01 09:22:04;;;;;;;12.27;8.77;;;16.40;93.80;;;;;;5033318;28;20026;-85
2023/10/01 09:24:39;;;;;;;15.82;9.18;;;16.60;93.80;;;;;;5054976;28;20021;-83
2023/10/01 09:27:30;;;;;;;11.00;6.38;;;17.00;93.50;;;;;;5063374;28;20486;-89
2023/10/01 09:30:31;;;;;;;9.57;5.97;;;17.50;92.60;;;;;;5077275;28;20494;-90
2023/10/01 09:33:05;;;;;;;11.23;5.90;;;18.00;91.40;;;;;;5050956;28;20378;-89
2023/10/01 09:36:03;;;;;;;7.38;5.45;;;18.90;89.20;;;;;;5050397;28;20041;-91
2023/10/01 09:38:29;;;;;;;12.55;6.28;;;19.80;86.50;;;;;;5060159;28;20037;-91
2023/10/01 09:40:57;;;;;;;9.60;5.87;;;20.90;82.80;;;;;;5044982;28;20402;-90
2023/10/01 09:43:29;;;;;;;8.43;5.25;;;20.90;78.60;;;;;;5060262;28;20116;-87
2023/10/01 09:46:00;;;;;;;10.10;5.47;;;20.30;78.10;;;;;;5051166;28;20036;-84
2023/10/01 09:48:30;;;;;;;9.65;5.50;;;19.80;79.00;;;;;;5065596;28;20108;-85
2023/10/01 09:51:15;;;;;;;14.02;5.95;;;19.50;79.90;;;;;;5059333;28;20020;-87
2023/10/01 09:54:01;;;;;;;7.05;4.38;;;19.20;80.90;;;;;;5056518;28;20017;-85
2023/10/01 09:56:45;;;;;;;9.50;4.05;;;19.80;81.40;;;;;;5043996;28;20014;-87
2023/10/01 09:59:11;;;;;;;9.40;4.10;;;21.50;76.70;;;;;;5057960;28;20041;-85
2023/10/01 10:01:45;;;;;;;7.47;4.77;;;22.20;70.60;;;;;;5059064;28;20382;-86
2023/10/01 10:04:12;;;;;;;9.25;4.40;;;22.50;70.50;;;;;;5042046;28;20505;-89
2023/10/01 10:06:41;;;;;;;9.30;4.75;;;22.50;67.70;;;;;;5042529;28;20123;-86
2023/10/01 10:09:25;;;;;;;10.75;4.72;;;22.10;68.80;;;;;;5061253;28;20029;-88
2023/10/01 10:11:51;;;;;;;7.85;4.47;;;21.60;69.60;;;;;;5057800;28;20025;-87
2023/10/01 10:14:24;;;;;;;8.95;4.07;;;21.20;70.20;;;;;;5055692;28;20025;-84
2023/10/01 10:17:18;;;;;;;7.10;4.35;;;21.00;70.20;;;;;;5039541;28;20044;-84
2023/10/01 10:20:25;;;;;;;7.88;4.80;;;20.50;70.40;;;;;;5049452;28;20688;-82
2023/10/01 10:23:21;;;;;;;7.15;3.35;;;19.90;70.80;;;;;;5053256;28;20025;-85
2023/10/01 10:25:47;;;;;;;9.10;3.95;;;19.10;72.40;;;;;;5040611;28;20036;-86
2023/10/01 10:28:29;;;;;;;11.10;4.13;;;18.60;74.90;;;;;;5045732;28;20112;-84
2023/10/01 10:31:29;;;;;;;6.07;3.53;;;18.30;75.30;;;;;;5041291;28;20025;-85
2023/10/01 10:34:24;;;;;;;6.45;3.60;;;18.10;76.60;;;;;;5047719;28;20047;-83
2023/10/01 10:36:54;;;;;;;9.00;3.75;;;17.90;77.20;;;;;;5038436;28;20025;-85
2023/10/01 10:40:33;;;;;;;6.95;3.80;;;17.70;77.10;;;;;;5030327;28;20036;-85
2023/10/01 10:42:57;;;;;;;8.38;3.95;;;17.50;78.00;;;;;;4956031;28;20094;-85
2023/10/01 10:45:43;;;;;;;7.78;3.72;;;17.40;78.80;;;;;;4957419;28;20110;-84
2023/10/01 10:48:16;;;;;;;10.18;4.63;;;17.40;79.30;;;;;;4941756;28;20134;-87
2023/10/01 10:50:53;;;;;;;6.75;3.50;;;17.40;79.10;;;;;;4936663;28;20055;-83
2023/10/01 10:53:38;;;;;;;13.48;6.30;;;17.40;79.60;;;;;;4937858;28;20135;-85
2023/10/01 10:56:10;;;;;;;6.68;3.65;;;17.20;79.90;;;;;;4945146;28;20031;-86
2023/10/01 10:58:46;;;;;;;10.13;4.50;;;17.20;80.50;;;;;;4955549;28;20035;-85
2023/10/01 11:01:18;;;;;;;9.38;4.07;;;17.30;80.70;;;;;;4955612;29;20032;-83
2023/10/01 11:03:59;;;;;;;9.00;3.78;;;17.40;79.60;;;;;;4958583;28;20031;-85
2023/10/01 11:09:23;;;;;;;8.20;4.32;;;17.60;79.10;;;;;;4949936;29;20094;-85
2023/10/01 11:12:07;;;;;;;7.20;3.10;;;17.50;78.90;;;;;;4957234;28;20023;-85
2023/10/01 11:14:34;;;;;;;9.48;4.32;;;17.50;78.90;;;;;;5055079;28;20032;-86
2023/10/01 11:17:00;;;;;;;;;;;17.50;79.20;;;;;;5069396;28;20036;-86
2023/10/01 11:19:27;;;;;;;9.65;4.10;;;17.50;79.90;;;;;;5058908;28;19913;-84
2023/10/01 11:21:58;;;;;;;;;;;17.60;79.30;;;;;;5071947;28;20017;-86
2023/10/01 11:24:29;;;;;;;10.85;3.70;;;17.60;79.20;;;;;;5040949;28;19904;-81
2023/10/01 11:27:18;;;;;;;9.77;4.22;;;17.70;79.40;;;;;;5054405;28;20021;-83
2023/10/01 11:29:57;;;;;;;8.10;4.07;;;17.90;78.60;;;;;;5053763;28;20067;-84
2023/10/01 11:33:13;;;;;;;5.22;3.15;;;18.00;77.80;;;;;;5055472;28;20017;-85
2023/10/01 11:38:47;;;;;;;10.85;4.65;;;18.00;78.50;;;;;;5010089;28;20120;-85
2023/10/01 11:41:13;;;;;;;11.40;4.15;;;17.90;77.40;;;;;;5055247;28;20101;-83
2023/10/01 11:43:45;;;;;;;7.32;4.38;;;17.90;77.40;;;;;;5041539;28;20466;-84
2023/10/01 11:46:23;;;;;;;7.55;3.58;;;17.90;77.20;;;;;;5058553;28;20056;-83
2023/10/01 11:49:00;;;;;;;7.82;3.75;;;17.90;77.40;;;;;;5041315;28;20472;-85
2023/10/01 11:51:38;;;;;;;8.73;3.30;;;18.00;77.20;;;;;;5057116;28;20490;-85
2023/10/01 11:54:25;;;;;;;6.40;3.90;;;18.00;77.70;;;;;;5025877;28;20021;-83
2023/10/01 11:57:08;;;;;;;7.25;3.80;;;18.00;77.90;;;;;;5036402;28;20029;-87
2023/10/01 11:59:42;;;;;;;6.97;3.95;;;18.10;77.40;;;;;;5035333;28;20056;-83
2023/10/01 12:02:20;;;;;;;8.43;3.78;;;18.10;77.00;;;;;;5035191;28;20474;-84
2023/10/01 12:05:00;;;;;;;8.75;3.92;;;18.20;77.20;;;;;;5034990;28;20029;-85
2023/10/01 12:07:39;;;;;;;10.75;4.35;;;18.30;76.70;;;;;;5053460;28;20063;-84
2023/10/01 12:10:07;;;;;;;14.00;3.45;;;18.10;76.40;;;;;;5037217;28;20482;-87
2023/10/01 12:12:37;;;;;;;10.05;4.75;;;18.00;75.20;;;;;;5053758;28;20074;-88
2023/10/01 12:17:54;;;;;;;10.95;3.72;;;17.80;75.40;;;;;;5054412;28;20064;-86
2023/10/01 12:20:23;;;;;;;6.53;2.75;;;17.70;74.20;;;;;;5053968;28;20071;-86
2023/10/01 12:28:23;;;;;;;8.13;4.13;;;17.60;74.00;;;;;;5052807;28;20017;-81
2023/10/01 12:31:08;;;;;;;8.13;3.30;;;17.70;73.40;;;;;;5034324;28;20036;-80
2023/10/01 12:33:38;;;;;;;10.65;4.53;;;17.70;72.10;;;;;;5051902;28;20124;-80
2023/10/01 12:36:31;;;;;;;10.15;3.85;;;17.60;71.80;;;;;;5045789;28;20025;-82
2023/10/01 12:39:04;;;;;;;8.05;3.30;;;17.50;72.00;;;;;;5046781;28;20119;-82
2023/10/01 12:41:56;;;;;;;7.35;3.13;;;17.50;71.80;;;;;;5042284;28;20124;-82
2023/10/01 12:44:29;;;;;;;10.88;4.35;;;17.40;72.00;;;;;;5047403;28;20035;-82
2023/10/01 12:47:00;;;;;;;10.05;4.00;;;17.30;72.00;;;;;;5026490;28;20044;-84
2023/10/01 12:49:27;;;;;;;5.32;2.97;;;17.20;72.40;;;;;;5033583;28;20024;-83
2023/10/01 12:51:53;;;;;;;7.37;3.43;;;17.10;72.50;;;;;;5020208;28;20038;-84
2023/10/01 12:54:25;;;;;;;8.30;4.27;;;17.10;73.70;;;;;;5035236;28;20533;-84
2023/10/01 12:59:44;;;;;;;5.95;3.13;;;17.10;73.60;;;;;;5051857;28;20045;-85
2023/10/01 13:07:45;;;;;;;7.28;3.85;;;16.70;75.10;;;;;;5029957;28;20071;-83
2023/10/01 13:10:12;;;;;;;10.15;3.67;;;16.70;74.40;;;;;;5018097;28;20483;-81
2023/10/01 13:12:39;;;;;;;7.82;3.75;;;16.70;75.10;;;;;;5037588;28;20032;-82
2023/10/01 13:15:14;;;;;;;9.77;4.88;;;16.70;75.10;;;;;;5035216;28;20029;-83
2023/10/01 13:17:56;;;;;;;9.02;4.38;;;16.80;74.80;;;;;;5044406;28;20013;-83
2023/10/01 13:23:14;;;;;;;9.55;4.22;;;16.90;74.90;;;;;;5013266;28;20029;-82
2023/10/01 13:26:05;;;;;;;6.85;3.90;;;16.80;75.10;;;;;;5029802;28;20033;-81
2023/10/01 13:28:43;;;;;;;10.23;4.72;;;16.80;74.30;;;;;;5020033;28;20112;-83
2023/10/01 13:31:12;;;;;;;10.85;5.68;;;16.70;75.30;;;;;;5026649;28;20184;-82
2023/10/01 13:33:56;;;;;;;11.73;5.28;;;16.70;75.10;;;;;;5039102;28;20013;-83
2023/10/01 13:36:35;;;;;;;8.30;3.90;;;16.70;75.00;;;;;;5051051;28;20510;-86
2023/10/01 14:08:48;;;;;;;13.02;5.13;;;16.30;79.20;;;;;;5052116;28;20106;-82
2023/10/01 14:11:26;;;;;;;16.92;6.68;;;16.30;78.90;;;;;;5051980;28;20032;-81
2023/10/01 14:13:55;;;;;;;12.15;5.00;;;16.30;79.90;;;;;;5052455;28;20096;-81
2023/10/01 14:16:32;;;;;;;14.48;8.15;;;16.30;79.00;;;;;;5050688;28;20029;-84
2023/10/01 14:19:13;;;;;;;7.45;3.25;;;16.20;79.50;;;;;;5048335;28;20036;-81
2023/10/01 14:21:39;;;;;;;7.78;4.03;;;16.20;79.70;;;;;;5051928;28;20029;-82
2023/10/01 14:27:07;;;;;;;9.40;4.57;;;16.10;79.80;;;;;;4973858;28;20034;-81
2023/10/01 14:29:33;;;;;;;11.15;5.57;;;16.10;80.20;;;;;;4978528;28;20035;-81
2023/10/01 14:32:10;;;;;;;12.32;4.68;;;16.10;80.70;;;;;;4988585;28;20090;-82
2023/10/01 14:34:36;;;;;;;12.50;4.53;;;16.10;80.90;;;;;;4980334;28;20031;-80